Time;durP1;ratioP1;P1;durP2;ratioP2;P2;SDS_P1;SDS_P2;PMS_P1;PMS_P2;Temp;Humidity;BMP_temperature;BMP_pressure;BME280_temperature;BME280_humidity;BME280_pressure;Samples;Min_cycle;Max_cycle;Signal;HPM_P1;HPM_P2
2022/06/02 00:03:03;;;;;;;0.50;0.50;;;12.00;99.90;;;;;;5054222;28;20436;-68
2022/06/02 00:06:07;;;;;;;0.93;0.93;;;12.00;99.90;;;;;;5054920;28;20412;-69
2022/06/02 00:09:04;;;;;;;0.50;0.50;;;12.00;99.90;;;;;;5054503;28;20955;-69
2022/06/02 00:12:03;;;;;;;0.40;0.40;;;12.00;99.90;;;;;;5055135;28;20427;-69
2022/06/02 00:15:00;;;;;;;0.40;0.40;;;12.10;99.90;;;;;;5054412;28;20459;-68
2022/06/02 00:17:58;;;;;;;0.40;0.40;;;12.10;99.90;;;;;;5054076;28;20427;-68
2022/06/02 00:20:51;;;;;;;0.40;0.40;;;12.10;99.90;;;;;;5053885;28;20519;-68
2022/06/02 00:23:49;;;;;;;0.50;0.50;;;12.20;99.90;;;;;;5055093;28;20431;-68
2022/06/02 00:26:45;;;;;;;0.40;0.40;;;12.20;99.90;;;;;;5038199;28;20432;-68
2022/06/02 00:29:50;;;;;;;0.40;0.40;;;12.20;99.90;;;;;;5034048;28;20448;-67
2022/06/02 00:32:46;;;;;;;0.50;0.50;;;12.00;99.90;;;;;;5034491;28;20804;-68
2022/06/02 00:35:43;;;;;;;0.50;0.50;;;11.90;99.90;;;;;;5034244;28;20476;-69
2022/06/02 00:38:35;;;;;;;0.40;0.40;;;11.80;99.90;;;;;;5034715;28;20453;-68
2022/06/02 00:41:30;;;;;;;0.50;0.50;;;11.70;99.90;;;;;;5033900;28;20421;-68
2022/06/02 00:44:28;;;;;;;0.50;0.50;;;11.60;99.90;;;;;;5034127;28;20428;-67
2022/06/02 00:47:36;;;;;;;0.50;0.50;;;11.50;99.90;;;;;;5033537;28;20421;-67
2022/06/02 00:50:41;;;;;;;0.50;0.50;;;11.40;99.90;;;;;;5033107;28;20421;-68
2022/06/02 00:53:40;;;;;;;1.13;1.13;;;11.30;99.90;;;;;;5033132;28;20425;-69
2022/06/02 00:59:50;;;;;;;0.47;0.47;;;11.10;99.90;;;;;;5032874;28;20460;-68
2022/06/02 01:02:46;;;;;;;0.50;0.50;;;11.00;99.90;;;;;;5033489;28;20429;-70
2022/06/02 01:05:59;;;;;;;0.90;0.90;;;11.00;99.90;;;;;;5029693;28;20421;-69
2022/06/02 01:09:13;;;;;;;0.50;0.50;;;10.90;99.90;;;;;;5030759;28;20445;-70
2022/06/02 01:12:16;;;;;;;0.50;0.50;;;10.90;99.90;;;;;;5032309;28;20440;-71
2022/06/02 01:15:15;;;;;;;0.50;0.50;;;10.90;99.90;;;;;;5032157;28;20560;-67
2022/06/02 01:18:15;;;;;;;0.50;0.50;;;10.90;99.90;;;;;;5032269;28;20456;-69
2022/06/02 01:21:26;;;;;;;0.40;0.40;;;10.90;99.90;;;;;;5032292;28;20425;-68
2022/06/02 01:24:50;;;;;;;0.60;0.60;;;10.90;99.90;;;;;;5032868;28;20512;-68
2022/06/02 01:28:11;;;;;;;0.63;0.63;;;10.80;99.90;;;;;;5013005;28;20422;-68
2022/06/02 01:31:08;;;;;;;0.50;0.50;;;10.70;99.90;;;;;;5011712;28;20973;-68
2022/06/02 01:34:03;;;;;;;0.40;0.40;;;10.60;99.90;;;;;;5012954;28;20950;-67
2022/06/02 01:37:01;;;;;;;0.50;0.50;;;10.60;99.90;;;;;;5012421;28;20968;-70
2022/06/02 01:40:12;;;;;;;0.70;0.70;;;10.50;99.90;;;;;;5012219;28;20450;-69
2022/06/02 01:43:06;;;;;;;0.40;0.40;;;10.50;99.90;;;;;;5012270;28;20445;-68
2022/06/02 01:46:14;;;;;;;0.40;0.40;;;10.50;99.90;;;;;;5012049;28;20466;-70
2022/06/02 01:49:14;;;;;;;0.50;0.50;;;10.40;99.90;;;;;;5012266;28;20445;-69
2022/06/02 01:52:17;;;;;;;0.50;0.50;;;10.40;99.90;;;;;;5012593;28;20430;-70
2022/06/02 01:55:29;;;;;;;0.50;0.50;;;10.30;99.90;;;;;;5012765;28;20966;-68
2022/06/02 01:58:31;;;;;;;0.50;0.50;;;10.20;99.90;;;;;;5011756;28;20807;-68
2022/06/02 02:01:28;;;;;;;0.40;0.40;;;10.20;99.90;;;;;;5012120;28;20433;-70
2022/06/02 02:04:50;;;;;;;0.50;0.50;;;10.10;99.90;;;;;;5010811;28;20434;-70
2022/06/02 02:07:46;;;;;;;0.50;0.50;;;10.10;99.90;;;;;;5011991;28;20501;-68
2022/06/02 02:10:45;;;;;;;0.50;0.50;;;10.00;99.90;;;;;;5015743;28;20435;-71
2022/06/02 02:13:48;;;;;;;0.50;0.50;;;10.00;99.90;;;;;;5015763;28;20429;-70
2022/06/02 02:16:50;;;;;;;0.50;0.50;;;9.90;99.90;;;;;;5016235;28;20472;-68
2022/06/02 02:19:49;;;;;;;0.40;0.40;;;9.90;99.90;;;;;;5017536;28;20445;-68
2022/06/02 02:22:45;;;;;;;0.50;0.50;;;9.90;99.90;;;;;;5016796;28;20483;-68
2022/06/02 02:25:47;;;;;;;0.50;0.50;;;9.90;99.90;;;;;;5032959;28;20906;-69
2022/06/02 02:28:44;;;;;;;0.70;0.70;;;9.80;99.90;;;;;;5058502;28;20450;-68
2022/06/02 02:31:47;;;;;;;0.50;0.50;;;9.80;99.90;;;;;;5059799;28;20416;-69
2022/06/02 02:34:49;;;;;;;1.13;1.13;;;9.80;99.90;;;;;;5062501;28;20427;-69
2022/06/02 02:37:44;;;;;;;0.50;0.50;;;9.70;99.90;;;;;;5063425;28;20446;-66
2022/06/02 02:40:39;;;;;;;0.67;0.67;;;9.60;99.90;;;;;;5055749;28;20482;-69
2022/06/02 02:43:32;;;;;;;0.40;0.40;;;9.60;99.90;;;;;;5055662;28;21247;-70
2022/06/02 02:46:26;;;;;;;0.40;0.40;;;9.50;99.90;;;;;;5055453;28;20976;-69
2022/06/02 02:49:21;;;;;;;0.50;0.50;;;9.50;99.90;;;;;;5056283;28;20440;-69
2022/06/02 02:52:17;;;;;;;0.47;0.47;;;9.40;99.90;;;;;;5059007;28;20428;-68
2022/06/02 02:55:11;;;;;;;0.60;0.60;;;9.40;99.90;;;;;;5055086;28;20481;-69
2022/06/02 02:58:09;;;;;;;0.50;0.50;;;9.40;99.90;;;;;;5055869;28;20440;-68
2022/06/02 03:01:02;;;;;;;0.40;0.40;;;9.40;99.90;;;;;;5055007;28;20443;-68
2022/06/02 03:04:16;;;;;;;0.50;0.50;;;9.30;99.90;;;;;;5055150;28;20428;-70
2022/06/02 03:07:06;;;;;;;0.40;0.40;;;9.30;99.90;;;;;;5079241;22;20488;-64
2022/06/02 03:10:02;;;;;;;0.40;0.40;;;9.30;99.90;;;;;;5054091;28;20447;-65
2022/06/02 03:13:06;;;;;;;0.40;0.40;;;9.30;99.90;;;;;;5055957;28;20437;-64
2022/06/02 03:16:00;;;;;;;0.40;0.40;;;9.30;99.90;;;;;;5053709;28;20465;-64
2022/06/02 03:19:00;;;;;;;0.40;0.40;;;9.30;99.90;;;;;;5054339;28;20459;-64
2022/06/02 03:21:54;;;;;;;0.50;0.50;;;9.30;99.90;;;;;;5055365;28;20852;-65
2022/06/02 03:25:01;;;;;;;0.40;0.40;;;9.30;99.90;;;;;;5051563;28;20421;-65
2022/06/02 03:27:59;;;;;;;0.40;0.40;;;9.30;99.90;;;;;;5035930;28;20452;-64
2022/06/02 03:30:57;;;;;;;0.40;0.40;;;9.40;99.90;;;;;;5034544;28;20430;-65
2022/06/02 03:34:00;;;;;;;0.40;0.40;;;9.50;99.90;;;;;;5034913;28;20434;-64
2022/06/02 03:37:12;;;;;;;0.60;0.60;;;9.50;99.90;;;;;;5034317;28;20536;-65
2022/06/02 03:40:25;;;;;;;0.40;0.40;;;9.40;99.90;;;;;;5023473;28;20713;-65
2022/06/02 03:43:17;;;;;;;0.40;0.40;;;9.40;99.90;;;;;;5019949;28;20437;-66
2022/06/02 03:46:20;;;;;;;0.40;0.40;;;9.40;99.90;;;;;;5018210;28;20434;-65
2022/06/02 03:49:29;;;;;;;0.40;0.40;;;9.40;99.90;;;;;;5016909;28;20418;-64
2022/06/02 03:52:34;;;;;;;0.50;0.50;;;9.40;99.90;;;;;;5016780;28;20969;-65
2022/06/02 03:55:34;;;;;;;0.70;0.70;;;9.50;99.90;;;;;;5016699;28;20454;-65
2022/06/02 03:58:46;;;;;;;0.40;0.40;;;9.60;99.90;;;;;;5017896;28;20888;-67
2022/06/02 04:01:37;;;;;;;0.40;0.40;;;9.70;99.90;;;;;;5019404;28;20472;-66
2022/06/02 04:04:39;;;;;;;0.40;0.40;;;9.90;99.90;;;;;;5019161;28;20422;-65
2022/06/02 04:07:36;;;;;;;0.40;0.40;;;10.00;99.90;;;;;;5018148;28;20413;-65
2022/06/02 04:10:38;;;;;;;0.40;0.40;;;10.00;99.90;;;;;;5017650;28;20429;-65
2022/06/02 04:13:39;;;;;;;0.40;0.40;;;10.10;99.90;;;;;;5018436;28;21067;-65
2022/06/02 04:16:50;;;;;;;0.40;0.40;;;10.20;99.90;;;;;;5017894;28;20461;-65
2022/06/02 04:23:29;;;;;;;0.40;0.40;;;10.40;99.90;;;;;;5020949;28;20422;-65
2022/06/02 04:26:34;;;;;;;0.50;0.50;;;10.50;99.90;;;;;;5037511;28;20443;-66
2022/06/02 04:29:48;;;;;;;0.40;0.40;;;10.50;99.90;;;;;;5042736;28;20492;-65
2022/06/02 04:32:45;;;;;;;0.70;0.70;;;10.60;99.90;;;;;;5039280;28;20422;-66
2022/06/02 04:35:40;;;;;;;0.40;0.40;;;10.80;99.90;;;;;;5037947;28;20472;-66
2022/06/02 04:38:34;;;;;;;0.50;0.50;;;10.80;99.90;;;;;;5037243;28;20417;-65
2022/06/02 04:41:31;;;;;;;1.17;1.17;;;10.80;99.90;;;;;;5037760;28;20426;-65
2022/06/02 04:44:28;;;;;;;1.23;1.00;;;10.90;99.90;;;;;;5035418;28;20440;-66
2022/06/02 04:47:24;;;;;;;0.40;0.40;;;11.00;99.90;;;;;;5036794;28;20445;-65
2022/06/02 04:50:21;;;;;;;0.40;0.40;;;11.10;99.90;;;;;;5035774;28;20474;-65
2022/06/02 04:53:28;;;;;;;0.83;0.50;;;11.30;99.90;;;;;;5043125;28;20429;-65
2022/06/02 04:56:25;;;;;;;0.50;0.50;;;11.40;99.90;;;;;;5034629;28;20456;-66
2022/06/02 04:59:20;;;;;;;0.60;0.60;;;11.40;99.90;;;;;;5041022;28;20429;-65
2022/06/02 05:02:17;;;;;;;2.10;2.00;;;11.40;99.90;;;;;;5044673;28;20421;-65
2022/06/02 05:05:15;;;;;;;0.40;0.40;;;11.30;99.90;;;;;;5038815;28;20999;-65
2022/06/02 05:08:35;;;;;;;1.43;1.33;;;11.30;99.90;;;;;;5036610;28;20413;-65
2022/06/02 05:11:41;;;;;;;1.10;1.00;;;11.10;99.90;;;;;;5034565;28;20436;-65
2022/06/02 05:14:36;;;;;;;0.93;0.90;;;10.90;99.90;;;;;;5033619;28;20436;-64
2022/06/02 05:17:46;;;;;;;0.40;0.40;;;10.80;99.90;;;;;;5034450;28;20519;-66
2022/06/02 05:20:59;;;;;;;1.27;0.87;;;10.70;99.90;;;;;;5039669;28;20858;-66
2022/06/02 05:24:16;;;;;;;0.70;0.60;;;10.70;99.90;;;;;;5038291;28;20433;-66
2022/06/02 05:27:42;;;;;;;0.40;0.40;;;10.70;99.90;;;;;;4995782;28;20987;-65
2022/06/02 05:30:54;;;;;;;0.80;0.80;;;10.80;99.90;;;;;;4997705;28;20426;-65
2022/06/02 05:34:08;;;;;;;0.40;0.40;;;10.90;99.90;;;;;;4997511;28;20437;-65
2022/06/02 05:37:09;;;;;;;0.40;0.40;;;11.20;99.90;;;;;;4998533;28;20462;-65
2022/06/02 05:40:13;;;;;;;0.50;0.50;;;11.60;99.90;;;;;;4997373;28;20454;-65
2022/06/02 05:43:27;;;;;;;0.70;0.70;;;12.00;99.90;;;;;;4998288;28;20454;-67
2022/06/02 05:46:36;;;;;;;0.60;0.50;;;12.30;99.90;;;;;;5010524;28;20461;-65
2022/06/02 05:49:32;;;;;;;0.50;0.50;;;12.40;99.90;;;;;;5019565;28;20941;-65
2022/06/02 05:52:31;;;;;;;5.50;2.53;;;12.10;99.90;;;;;;5019504;28;20432;-66
2022/06/02 05:55:35;;;;;;;2.90;2.43;;;11.90;99.90;;;;;;5019187;28;20442;-65
2022/06/02 05:58:50;;;;;;;0.50;0.50;;;11.90;99.90;;;;;;5021765;28;20469;-65
2022/06/02 06:01:59;;;;;;;3.63;2.90;;;11.90;99.90;;;;;;5019885;28;20425;-66
2022/06/02 06:05:05;;;;;;;2.10;2.00;;;12.00;99.90;;;;;;5020131;28;20475;-65
2022/06/02 06:08:21;;;;;;;2.30;1.37;;;12.10;99.90;;;;;;5018927;28;20421;-66
2022/06/02 06:11:21;;;;;;;0.90;0.90;;;12.50;99.90;;;;;;5019208;28;20421;-65
2022/06/02 06:14:24;;;;;;;0.60;0.60;;;12.80;99.90;;;;;;5019332;28;20490;-65
2022/06/02 06:17:22;;;;;;;1.03;1.03;;;12.60;99.90;;;;;;5017650;28;21002;-66
2022/06/02 06:20:20;;;;;;;0.40;0.40;;;12.60;99.90;;;;;;5011322;28;20433;-66
2022/06/02 06:23:50;;;;;;;0.40;0.40;;;12.60;99.90;;;;;;5018556;28;20429;-66
2022/06/02 06:26:48;;;;;;;1.43;1.43;;;12.50;99.90;;;;;;4939172;29;20453;-65
2022/06/02 06:29:44;;;;;;;0.40;0.40;;;12.50;99.90;;;;;;4948175;29;20429;-67
2022/06/02 06:32:47;;;;;;;1.10;1.00;;;12.60;99.90;;;;;;5031045;28;20473;-67
2022/06/02 06:35:50;;;;;;;1.70;0.93;;;12.80;99.90;;;;;;5028012;28;20516;-66
2022/06/02 06:38:52;;;;;;;0.80;0.80;;;12.80;99.90;;;;;;5018984;28;20493;-67
2022/06/02 06:41:57;;;;;;;0.57;0.57;;;13.20;99.90;;;;;;5029456;28;20455;-67
2022/06/02 06:44:52;;;;;;;0.57;0.57;;;13.60;99.90;;;;;;5000785;28;20947;-68
2022/06/02 06:47:45;;;;;;;2.10;2.00;;;13.80;99.90;;;;;;4998371;28;20438;-67
2022/06/02 06:50:39;;;;;;;1.03;0.70;;;13.80;99.90;;;;;;5011272;28;20449;-66
2022/06/02 06:53:40;;;;;;;2.83;1.03;;;14.00;99.90;;;;;;5015497;28;20965;-67
2022/06/02 06:56:35;;;;;;;2.23;1.17;;;14.30;99.90;;;;;;5007845;28;20818;-67
2022/06/02 06:59:34;;;;;;;0.53;0.53;;;14.40;99.90;;;;;;5003756;28;20884;-67
2022/06/02 07:02:34;;;;;;;2.27;2.17;;;14.50;99.90;;;;;;4997518;28;20435;-66
2022/06/02 07:05:33;;;;;;;0.70;0.70;;;14.40;99.90;;;;;;4996979;28;20871;-66
2022/06/02 07:08:32;;;;;;;0.40;0.40;;;14.10;99.90;;;;;;5018550;28;20432;-65
2022/06/02 07:14:40;;;;;;;0.40;0.40;;;13.90;99.90;;;;;;5026484;28;20461;-65
2022/06/02 07:17:36;;;;;;;0.50;0.50;;;13.80;99.90;;;;;;5014932;28;20434;-65
2022/06/02 07:20:54;;;;;;;1.17;1.17;;;13.70;99.90;;;;;;5012785;28;20434;-65
2022/06/02 07:23:55;;;;;;;0.67;0.53;;;14.00;99.90;;;;;;5017138;28;20473;-66
2022/06/02 07:27:06;;;;;;;1.37;1.27;;;14.40;99.90;;;;;;5006964;28;20450;-66
2022/06/02 07:30:16;;;;;;;1.83;1.70;;;14.20;99.90;;;;;;4995307;28;20427;-66
2022/06/02 07:33:21;;;;;;;0.67;0.67;;;13.90;99.90;;;;;;5008884;28;20434;-66
2022/06/02 07:36:30;;;;;;;0.70;0.70;;;14.00;99.90;;;;;;5004032;28;20439;-66
2022/06/02 07:39:45;;;;;;;0.83;0.83;;;14.60;99.90;;;;;;4996780;28;20486;-66
2022/06/02 07:43:19;;;;;;;0.40;0.40;;;15.20;99.90;;;;;;5000310;28;20581;-66
2022/06/02 07:46:26;;;;;;;1.17;0.83;;;15.70;99.90;;;;;;4967534;28;20451;-67
2022/06/02 07:49:35;;;;;;;0.53;0.53;;;15.60;99.90;;;;;;4971871;28;20207;-66
2022/06/02 07:52:35;;;;;;;1.53;0.70;;;15.30;99.90;;;;;;5000391;28;20427;-66
2022/06/02 07:55:31;;;;;;;0.40;0.40;;;15.00;99.90;;;;;;4995550;28;20501;-65
2022/06/02 07:58:32;;;;;;;1.37;1.27;;;14.90;99.90;;;;;;5009292;28;20466;-66
2022/06/02 08:01:50;;;;;;;1.07;1.07;;;15.20;99.90;;;;;;5006482;28;20422;-69
2022/06/02 08:04:49;;;;;;;0.50;0.50;;;15.70;99.90;;;;;;4998804;28;20241;-66
2022/06/02 08:07:50;;;;;;;0.60;0.60;;;15.60;99.90;;;;;;5000249;28;20273;-66
2022/06/02 08:11:03;;;;;;;2.10;1.03;;;15.20;99.90;;;;;;5004216;28;20214;-67
2022/06/02 08:14:00;;;;;;;0.93;0.83;;;15.00;99.90;;;;;;5001269;28;20450;-66
2022/06/02 08:16:54;;;;;;;0.60;0.50;;;15.00;99.90;;;;;;5007600;28;20275;-66
2022/06/02 08:19:50;;;;;;;1.00;0.70;;;14.90;99.90;;;;;;5000125;28;20220;-66
2022/06/02 08:22:56;;;;;;;1.27;1.03;;;15.10;99.90;;;;;;5005681;28;20478;-66
2022/06/02 08:25:59;;;;;;;2.20;1.17;;;15.30;99.90;;;;;;5009672;28;20464;-67
2022/06/02 08:29:01;;;;;;;0.90;0.90;;;15.40;99.90;;;;;;5022722;28;20425;-67
2022/06/02 08:32:08;;;;;;;0.50;0.50;;;15.20;99.90;;;;;;5029855;28;20445;-66
2022/06/02 08:35:08;;;;;;;1.27;1.10;;;15.00;99.90;;;;;;5025415;28;20230;-66
2022/06/02 08:38:15;;;;;;;0.40;0.40;;;15.00;99.90;;;;;;5028427;28;20209;-66
2022/06/02 08:41:44;;;;;;;0.60;0.60;;;15.40;99.90;;;;;;5005891;28;20989;-66
2022/06/02 08:45:11;;;;;;;0.50;0.50;;;15.90;99.90;;;;;;5021572;28;20427;-66
2022/06/02 08:48:51;;;;;;;1.43;1.23;;;16.20;99.90;;;;;;4997384;28;20466;-66
2022/06/02 08:52:21;;;;;;;0.70;0.70;;;16.30;99.90;;;;;;4974733;28;20223;-66
2022/06/02 08:55:44;;;;;;;0.50;0.50;;;16.30;99.90;;;;;;5009052;28;20249;-66
2022/06/02 08:59:16;;;;;;;0.43;0.43;;;16.30;99.90;;;;;;5010027;28;20214;-66
2022/06/02 09:02:20;;;;;;;0.50;0.50;;;16.40;99.90;;;;;;5007362;28;20286;-66
2022/06/02 09:05:57;;;;;;;1.00;1.00;;;16.40;99.90;;;;;;5001734;28;20687;-65
2022/06/02 09:09:27;;;;;;;0.40;0.40;;;15.90;99.90;;;;;;5003441;28;20195;-66
2022/06/02 09:12:55;;;;;;;1.43;1.33;;;15.70;99.90;;;;;;5014500;23;20244;-68
2022/06/02 09:16:10;;;;;;;0.50;0.50;;;15.70;99.90;;;;;;5015086;28;20265;-67
2022/06/02 09:19:17;;;;;;;5.38;1.42;;;15.80;99.90;;;;;;5020908;28;20475;-66
2022/06/02 09:22:33;;;;;;;0.40;0.40;;;16.00;99.90;;;;;;5023072;28;20232;-67
2022/06/02 09:25:29;;;;;;;1.00;0.93;;;16.40;99.90;;;;;;5026823;28;20213;-66
2022/06/02 09:28:52;;;;;;;0.50;0.50;;;16.90;99.90;;;;;;5023387;28;20208;-67
2022/06/02 09:32:03;;;;;;;0.50;0.50;;;17.10;99.90;;;;;;5020051;28;20202;-67
2022/06/02 09:35:03;;;;;;;0.40;0.40;;;16.80;99.90;;;;;;5028306;28;20209;-67
2022/06/02 09:38:25;;;;;;;1.38;1.27;;;16.60;99.90;;;;;;5028177;28;20679;-66
2022/06/02 09:41:39;;;;;;;0.50;0.50;;;16.70;99.90;;;;;;5025617;28;20533;-67
2022/06/02 09:44:35;;;;;;;0.50;0.50;;;16.90;99.90;;;;;;5026577;28;20206;-66
2022/06/02 09:47:50;;;;;;;0.60;0.50;;;17.30;99.90;;;;;;5013514;28;20210;-67
2022/06/02 09:51:02;;;;;;;1.30;1.05;;;17.40;99.90;;;;;;5013690;28;20203;-67
2022/06/02 09:54:15;;;;;;;1.30;0.70;;;17.20;99.90;;;;;;5033220;28;20229;-68
2022/06/02 10:00:56;;;;;;;0.50;0.50;;;17.20;99.90;;;;;;5015630;28;20233;-67
2022/06/02 10:04:15;;;;;;;1.08;0.98;;;17.30;99.90;;;;;;5022139;28;20226;-67
2022/06/02 10:07:32;;;;;;;0.50;0.50;;;17.20;99.90;;;;;;5013961;28;20207;-68
2022/06/02 10:11:02;;;;;;;0.50;0.50;;;17.10;99.90;;;;;;5027657;28;20202;-66
2022/06/02 10:14:19;;;;;;;0.50;0.50;;;17.20;99.90;;;;;;5020834;28;20241;-67
2022/06/02 10:17:44;;;;;;;0.50;0.50;;;17.40;99.90;;;;;;5026243;28;20235;-67
2022/06/02 10:20:50;;;;;;;0.60;0.60;;;17.50;99.90;;;;;;5019350;28;20230;-66
2022/06/02 10:24:08;;;;;;;0.60;0.60;;;17.60;99.90;;;;;;5024077;28;20225;-68
2022/06/02 10:27:22;;;;;;;0.52;0.52;;;17.90;99.90;;;;;;5018119;28;20198;-67
2022/06/02 10:30:54;;;;;;;0.50;0.50;;;18.10;99.90;;;;;;5029396;28;20210;-68
2022/06/02 10:34:15;;;;;;;0.40;0.40;;;18.10;99.90;;;;;;5006595;28;20221;-67
2022/06/02 10:37:24;;;;;;;0.40;0.40;;;18.10;99.90;;;;;;5024002;28;20206;-68
2022/06/02 10:40:23;;;;;;;0.40;0.40;;;18.10;99.90;;;;;;5023992;28;20224;-69
2022/06/02 10:44:05;;;;;;;0.40;0.40;;;18.10;99.90;;;;;;5018443;28;20222;-68
2022/06/02 10:47:24;;;;;;;0.50;0.50;;;18.40;99.90;;;;;;5013438;28;20198;-69
2022/06/02 10:50:30;;;;;;;0.40;0.40;;;18.90;98.80;;;;;;5024019;28;20580;-71
2022/06/02 10:53:45;;;;;;;0.50;0.50;;;19.10;98.70;;;;;;5034478;28;20307;-73
2022/06/02 10:56:53;;;;;;;0.57;0.57;;;19.30;98.20;;;;;;5013343;28;20619;-72
2022/06/02 11:00:11;;;;;;;0.40;0.40;;;19.10;98.00;;;;;;5030920;28;20233;-67
2022/06/02 11:03:47;;;;;;;0.70;0.70;;;18.70;98.80;;;;;;5027255;28;20273;-67
2022/06/02 11:07:19;;;;;;;0.63;0.60;;;18.40;97.90;;;;;;5026305;28;20211;-67
2022/06/02 11:10:30;;;;;;;0.50;0.50;;;18.50;96.90;;;;;;5027979;28;20202;-67
2022/06/02 11:13:59;;;;;;;0.70;0.70;;;18.50;97.50;;;;;;5026396;28;20230;-67
2022/06/02 11:17:33;;;;;;;0.50;0.50;;;18.40;97.20;;;;;;5023541;28;20332;-66
2022/06/02 11:20:55;;;;;;;0.50;0.50;;;18.30;97.50;;;;;;5035266;28;20276;-68
2022/06/02 11:24:25;;;;;;;3.00;0.60;;;18.20;97.50;;;;;;5029886;28;20229;-69
2022/06/02 11:27:42;;;;;;;0.57;0.50;;;18.20;97.40;;;;;;5017125;28;20624;-68
2022/06/02 11:31:09;;;;;;;0.50;0.50;;;18.10;95.70;;;;;;5025583;28;20213;-68
2022/06/02 11:34:28;;;;;;;0.40;0.40;;;18.20;96.20;;;;;;5024379;28;20222;-68
2022/06/02 11:37:41;;;;;;;0.40;0.40;;;18.40;94.90;;;;;;5006693;28;20207;-67
2022/06/02 11:41:17;;;;;;;0.73;0.73;;;18.60;94.40;;;;;;5025892;28;20225;-66
2022/06/02 11:44:10;;;;;;;0.40;0.40;;;18.80;93.00;;;;;;5028685;28;20224;-68
2022/06/02 11:47:21;;;;;;;0.50;0.50;;;18.80;93.00;;;;;;5020913;28;20206;-68
2022/06/02 11:50:48;;;;;;;0.80;0.80;;;18.80;94.00;;;;;;5013218;28;20210;-67
2022/06/02 11:53:59;;;;;;;0.43;0.43;;;18.80;93.90;;;;;;5021499;28;20230;-68
2022/06/02 11:57:20;;;;;;;0.40;0.40;;;18.70;94.00;;;;;;5037259;28;20285;-67
2022/06/02 12:00:23;;;;;;;0.40;0.40;;;18.90;93.90;;;;;;5032511;28;20327;-67
2022/06/02 12:03:35;;;;;;;0.50;0.50;;;19.00;93.60;;;;;;5033338;28;20232;-66
2022/06/02 12:06:46;;;;;;;0.70;0.70;;;18.90;93.20;;;;;;5033845;28;20201;-68
2022/06/02 12:10:13;;;;;;;0.50;0.50;;;18.90;92.20;;;;;;5034990;28;20205;-66
2022/06/02 12:13:22;;;;;;;0.60;0.60;;;19.00;91.80;;;;;;5034246;28;20345;-67
2022/06/02 12:16:29;;;;;;;0.70;0.50;;;19.30;90.80;;;;;;5032036;28;20682;-71
2022/06/02 12:19:41;;;;;;;0.50;0.50;;;19.70;92.30;;;;;;5031445;28;20202;-73
2022/06/02 12:22:59;;;;;;;0.77;0.60;;;19.80;91.80;;;;;;5031389;28;20275;-71
2022/06/02 12:26:04;;;;;;;0.85;0.85;;;19.90;91.00;;;;;;5029802;28;20210;-73
2022/06/02 12:29:15;;;;;;;0.70;0.70;;;19.80;90.70;;;;;;5011812;28;20227;-70
2022/06/02 12:32:26;;;;;;;0.40;0.40;;;19.60;91.60;;;;;;5011873;28;20276;-69
2022/06/02 12:35:44;;;;;;;0.60;0.60;;;20.00;91.70;;;;;;5009629;28;20210;-73
2022/06/02 12:39:06;;;;;;;0.75;0.50;;;20.60;90.40;;;;;;5012021;28;20230;-72
2022/06/02 12:42:37;;;;;;;0.50;0.50;;;21.50;87.50;;;;;;5010614;28;20718;-69
2022/06/02 12:45:46;;;;;;;0.50;0.50;;;22.70;84.60;;;;;;5011321;28;20209;-69
2022/06/02 12:49:02;;;;;;;0.90;0.90;;;23.90;80.60;;;;;;5024644;28;20202;-67
2022/06/02 12:52:01;;;;;;;1.63;0.70;;;25.70;74.40;;;;;;5031067;28;20209;-67
2022/06/02 12:55:06;;;;;;;0.93;0.57;;;28.10;68.50;;;;;;5032069;28;20638;-66
2022/06/02 12:58:36;;;;;;;0.80;0.80;;;29.90;60.60;;;;;;5031303;28;20201;-66
2022/06/02 13:01:49;;;;;;;0.60;0.50;;;30.50;55.60;;;;;;5030825;28;20221;-66
2022/06/02 13:05:21;;;;;;;0.40;0.40;;;30.10;53.70;;;;;;5031167;28;20209;-66
2022/06/02 13:08:47;;;;;;;1.23;1.15;;;30.60;53.60;;;;;;5030211;28;20209;-66
2022/06/02 13:11:56;;;;;;;0.45;0.45;;;31.90;50.40;;;;;;5030938;28;20202;-66
2022/06/02 13:15:16;;;;;;;0.50;0.43;;;31.10;49.90;;;;;;5030998;28;20217;-67
2022/06/02 13:18:25;;;;;;;0.50;0.50;;;29.30;51.70;;;;;;5031339;28;20739;-69
2022/06/02 13:21:41;;;;;;;0.50;0.50;;;28.30;52.20;;;;;;5030513;28;20217;-67
2022/06/02 13:25:00;;;;;;;0.40;0.40;;;29.30;51.20;;;;;;5031046;28;20237;-67
2022/06/02 13:28:12;;;;;;;0.65;0.65;;;31.30;48.50;;;;;;5030637;28;20295;-67
2022/06/02 13:31:45;;;;;;;0.80;0.55;;;32.60;47.30;;;;;;5031231;28;20201;-68
2022/06/02 13:35:17;;;;;;;0.47;0.47;;;30.30;47.10;;;;;;4978545;28;20217;-66
2022/06/02 13:38:45;;;;;;;0.60;0.50;;;30.30;47.30;;;;;;5030882;28;20260;-66
2022/06/02 13:41:53;;;;;;;0.57;0.50;;;31.80;46.50;;;;;;5009945;28;20220;-67
2022/06/02 13:45:13;;;;;;;0.40;0.40;;;32.00;45.10;;;;;;5030596;28;20352;-67
2022/06/02 13:48:35;;;;;;;0.45;0.45;;;34.10;44.90;;;;;;5030824;28;20203;-67
2022/06/02 13:52:01;;;;;;;0.40;0.40;;;31.70;44.80;;;;;;5030610;28;20233;-67
2022/06/02 13:59:15;;;;;;;0.40;0.40;;;33.30;44.70;;;;;;4969647;28;20200;-67
2022/06/02 14:02:30;;;;;;;0.60;0.60;;;32.90;44.40;;;;;;5030824;28;20232;-67
2022/06/02 14:05:38;;;;;;;0.98;0.63;;;32.00;44.70;;;;;;5013498;28;20281;-67
2022/06/02 14:08:45;;;;;;;0.50;0.50;;;32.60;44.40;;;;;;5028046;28;20229;-67
2022/06/02 14:11:46;;;;;;;0.40;0.40;;;31.40;45.90;;;;;;5035515;28;20193;-67
2022/06/02 14:14:51;;;;;;;0.40;0.40;;;32.70;45.50;;;;;;5052732;28;20201;-67
2022/06/02 14:18:02;;;;;;;0.60;0.60;;;32.80;44.50;;;;;;5053631;28;20201;-67
2022/06/02 14:21:06;;;;;;;0.40;0.40;;;29.90;46.10;;;;;;5053131;28;20300;-67
2022/06/02 14:24:05;;;;;;;0.40;0.40;;;27.70;49.70;;;;;;5053277;28;20229;-67
2022/06/02 14:27:06;;;;;;;1.20;0.60;;;27.60;50.80;;;;;;5035867;28;20218;-67
2022/06/02 14:30:05;;;;;;;0.40;0.40;;;27.40;51.20;;;;;;5013067;28;20668;-67
2022/06/02 14:33:01;;;;;;;0.40;0.40;;;27.10;52.60;;;;;;5028870;28;20272;-67
2022/06/02 14:35:56;;;;;;;0.40;0.40;;;29.50;51.20;;;;;;5033787;28;20722;-67
2022/06/02 14:38:57;;;;;;;0.40;0.40;;;31.90;48.40;;;;;;5034601;28;20295;-67
2022/06/02 14:42:01;;;;;;;0.60;0.60;;;35.00;42.80;;;;;;5033577;28;20221;-67
2022/06/02 14:45:01;;;;;;;0.40;0.40;;;35.00;43.30;;;;;;5034336;28;20209;-67
2022/06/02 14:47:56;;;;;;;0.40;0.40;;;33.10;43.90;;;;;;5033861;28;20206;-67
2022/06/02 14:51:11;;;;;;;0.40;0.40;;;30.80;47.20;;;;;;5033189;28;20213;-67
2022/06/02 14:54:18;;;;;;;0.40;0.40;;;30.20;47.70;;;;;;5033928;28;20209;-67
2022/06/02 14:57:17;;;;;;;0.60;0.50;;;31.00;47.00;;;;;;5033369;28;20209;-66
2022/06/02 15:00:21;;;;;;;0.52;0.52;;;31.70;45.90;;;;;;5032690;28;20199;-68
2022/06/02 15:03:43;;;;;;;0.40;0.40;;;32.20;45.70;;;;;;5032402;28;20237;-67
2022/06/02 15:06:49;;;;;;;0.47;0.40;;;34.00;44.30;;;;;;5032355;28;20198;-67
2022/06/02 15:09:57;;;;;;;0.50;0.50;;;32.90;44.50;;;;;;5033226;28;20256;-67
2022/06/02 15:13:04;;;;;;;0.50;0.50;;;32.60;44.60;;;;;;5032494;28;20226;-66
2022/06/02 15:16:06;;;;;;;0.40;0.40;;;31.60;44.90;;;;;;5032953;28;20248;-67
2022/06/02 15:19:40;;;;;;;0.40;0.40;;;29.70;46.90;;;;;;5032390;28;20709;-67
2022/06/02 15:23:12;;;;;;;0.50;0.50;;;27.50;49.90;;;;;;4989189;28;20321;-69
2022/06/02 15:26:10;;;;;;;0.40;0.40;;;25.60;52.40;;;;;;5012396;28;20202;-69
2022/06/02 15:29:14;;;;;;;0.50;0.50;;;25.90;52.90;;;;;;5013824;28;20289;-71
2022/06/02 15:32:22;;;;;;;0.40;0.40;;;25.60;52.60;;;;;;5014264;28;20214;-67
2022/06/02 15:36:03;;;;;;;0.50;0.50;;;25.60;53.10;;;;;;5013441;28;20206;-69
2022/06/02 15:39:24;;;;;;;0.50;0.50;;;26.20;51.70;;;;;;5013688;28;20207;-67
2022/06/02 15:42:43;;;;;;;0.68;0.68;;;26.40;52.10;;;;;;5024379;28;20773;-67
2022/06/02 15:46:05;;;;;;;0.50;0.50;;;29.10;49.70;;;;;;5033131;28;20595;-67
2022/06/02 15:49:31;;;;;;;1.05;1.05;;;30.70;47.40;;;;;;5013037;28;20203;-66
2022/06/02 15:53:01;;;;;;;0.57;0.40;;;31.20;46.40;;;;;;5012359;28;20257;-68
2022/06/02 15:56:31;;;;;;;0.40;0.40;;;29.20;47.50;;;;;;5012402;28;20198;-68
2022/06/02 16:00:02;;;;;;;0.50;0.50;;;27.80;49.90;;;;;;5012688;28;20615;-68
2022/06/02 16:03:26;;;;;;;0.40;0.40;;;27.40;50.40;;;;;;5003951;28;20313;-69
2022/06/02 16:06:59;;;;;;;0.40;0.40;;;27.10;50.60;;;;;;5012207;28;20278;-66
2022/06/02 16:14:08;;;;;;;0.40;0.40;;;32.80;45.50;;;;;;5012666;28;20292;-67
2022/06/02 16:17:43;;;;;;;0.40;0.40;;;31.10;45.70;;;;;;5012727;28;20222;-66
2022/06/02 16:20:56;;;;;;;0.40;0.40;;;31.20;46.90;;;;;;4970559;28;20204;-66
2022/06/02 16:24:36;;;;;;;0.50;0.50;;;30.70;46.60;;;;;;4970500;28;20224;-67
2022/06/02 16:28:11;;;;;;;0.50;0.50;;;29.30;47.60;;;;;;4987487;28;20257;-67
2022/06/02 16:31:17;;;;;;;0.50;0.50;;;28.80;48.70;;;;;;5011448;28;20211;-68
2022/06/02 16:34:25;;;;;;;0.40;0.40;;;29.90;47.60;;;;;;5011652;28;20257;-68
2022/06/02 16:37:20;;;;;;;0.40;0.40;;;31.90;46.60;;;;;;5011385;28;20202;-68
2022/06/02 16:40:28;;;;;;;0.40;0.40;;;31.40;46.40;;;;;;5011268;28;20199;-67
2022/06/02 16:43:38;;;;;;;0.40;0.40;;;29.40;47.90;;;;;;5011268;28;20222;-65
2022/06/02 16:46:46;;;;;;;0.60;0.60;;;27.80;50.10;;;;;;5011809;28;20214;-67